Time;durP1;ratioP1;P1;durP2;ratioP2;P2;SDS_P1;SDS_P2;PMS_P1;PMS_P2;Temp;Humidity;BMP_temperature;BMP_pressure;BME280_temperature;BME280_humidity;BME280_pressure;Samples;Min_cycle;Max_cycle;Signal;HPM_P1;HPM_P2
2023/08/19 00:01:08;;;;;;;6.60;5.00;;;;;;;25.19;79.99;100037.84;5091251;28;20552;-62
2023/08/19 00:03:33;;;;;;;9.63;5.23;;;;;;;25.20;79.97;100040.31;5105491;27;20181;-63
2023/08/19 00:06:04;;;;;;;7.60;4.50;;;;;;;25.19;79.61;100044.44;5112061;27;20189;-62
2023/08/19 00:08:29;;;;;;;5.80;4.63;;;;;;;25.20;79.78;100045.28;5111371;28;20730;-62
2023/08/19 00:10:55;;;;;;;7.37;4.83;;;;;;;25.19;79.55;100050.22;5106500;28;20466;-62
2023/08/19 00:13:20;;;;;;;6.30;4.70;;;;;;;25.19;79.69;100043.63;5092744;28;20280;-63
2023/08/19 00:15:46;;;;;;;6.00;4.83;;;;;;;25.19;79.70;100037.84;5090068;28;20174;-62
2023/08/19 00:18:11;;;;;;;7.23;4.93;;;;;;;25.19;79.92;100038.66;5093212;28;20229;-62
2023/08/19 00:20:37;;;;;;;6.93;5.03;;;;;;;25.19;79.92;100040.75;5107519;28;20177;-63
2023/08/19 00:23:03;;;;;;;6.67;4.90;;;;;;;25.19;79.97;100050.22;5109623;28;20184;-62
2023/08/19 00:25:28;;;;;;;6.40;4.80;;;;;;;25.19;79.76;100049.41;5100158;28;20198;-62
2023/08/19 00:27:54;;;;;;;8.53;4.90;;;;;;;25.18;79.72;100045.69;5088907;28;20182;-62
2023/08/19 00:30:19;;;;;;;6.10;4.63;;;;;;;25.19;79.46;100055.19;5091518;28;20189;-62
2023/08/19 00:32:46;;;;;;;5.07;4.57;;;;;;;25.19;79.90;100058.88;5091036;27;20180;-62
2023/08/19 00:35:12;;;;;;;7.40;4.80;;;;;;;25.18;79.38;100042.81;5110673;27;20189;-62
2023/08/19 00:37:38;;;;;;;6.57;4.83;;;;;;;25.18;79.28;100042.81;5109986;28;21105;-62
2023/08/19 00:40:04;;;;;;;6.30;4.93;;;;;;;25.18;79.77;100044.91;5110827;28;20442;-62
2023/08/19 00:42:29;;;;;;;6.27;4.90;;;;;;;25.18;79.70;100047.78;5111179;28;20643;-62
2023/08/19 00:44:55;;;;;;;6.23;5.37;;;;;;;25.18;79.46;100051.47;5093330;28;20236;-62
2023/08/19 00:47:20;;;;;;;6.53;5.07;;;;;;;25.18;79.33;100045.69;5055354;28;20186;-62
2023/08/19 00:49:47;;;;;;;7.17;4.80;;;;;;;25.17;79.72;100043.22;5065292;28;20205;-62
2023/08/19 00:52:13;;;;;;;4.67;4.00;;;;;;;25.18;79.44;100059.34;5091132;28;20292;-62
2023/08/19 00:54:38;;;;;;;7.73;5.23;;;;;;;25.18;79.19;100045.69;5088094;28;21245;-63
2023/08/19 00:57:04;;;;;;;7.63;4.40;;;;;;;25.18;79.62;100050.69;5087236;28;20550;-63
2023/08/19 00:59:29;;;;;;;6.80;4.87;;;;;;;25.18;79.56;100044.91;5089015;28;20774;-63
2023/08/19 01:01:55;;;;;;;8.13;4.87;;;;;;;25.18;79.66;100045.69;5106495;27;20173;-63
2023/08/19 01:04:20;;;;;;;5.77;4.77;;;;;;;25.18;79.45;100042.00;5109866;27;20182;-62
2023/08/19 01:07:15;;;;;;;9.23;4.90;;;;;;;25.18;79.71;100042.81;5089197;28;20186;-62
2023/08/19 01:10:05;;;;;;;6.70;4.43;;;;;;;25.18;79.33;100042.00;5073140;28;20642;-63
2023/08/19 01:12:44;;;;;;;6.03;4.70;;;;;;;25.17;78.98;100040.34;5078048;27;20547;-62
2023/08/19 01:15:12;;;;;;;7.77;5.00;;;;;;;25.17;79.37;100051.91;5074845;28;20443;-62
2023/08/19 01:17:38;;;;;;;5.63;4.50;;;;;;;25.17;78.94;100037.47;5109112;28;20419;-62
2023/08/19 01:20:04;;;;;;;7.27;4.70;;;;;;;25.17;79.36;100034.56;5090156;28;20418;-63
2023/08/19 01:22:49;;;;;;;6.57;4.83;;;;;;;25.17;79.25;100040.34;5111347;27;20173;-62
2023/08/19 01:25:15;;;;;;;5.50;4.30;;;;;;;25.16;79.40;100042.44;5101402;27;20440;-63
2023/08/19 01:27:40;;;;;;;7.50;4.90;;;;;;;25.16;79.61;100045.31;5071621;28;20791;-62
2023/08/19 01:30:07;;;;;;;7.13;4.73;;;;;;;25.16;79.57;100036.66;5089609;28;20162;-62
2023/08/19 01:32:32;;;;;;;5.03;4.23;;;;;;;25.16;79.35;100041.59;5091008;28;20322;-63
2023/08/19 01:34:58;;;;;;;7.70;4.50;;;;;;;25.15;79.45;100046.59;5109097;27;20501;-63
2023/08/19 01:37:32;;;;;;;6.93;5.07;;;;;;;25.16;79.64;100039.53;5091405;28;20182;-62
2023/08/19 01:39:58;;;;;;;7.43;4.27;;;;;;;25.16;78.82;100041.59;5078593;28;20640;-62
2023/08/19 01:42:23;;;;;;;7.50;4.90;;;;;;;25.15;79.32;100042.84;5089393;28;20419;-62
2023/08/19 01:44:49;;;;;;;6.93;4.90;;;;;;;25.15;79.05;100049.47;5073400;28;20174;-63
2023/08/19 01:47:16;;;;;;;8.23;5.00;;;;;;;25.15;78.76;100048.63;5089263;28;20163;-63
2023/08/19 01:49:45;;;;;;;6.23;4.30;;;;;;;25.14;79.26;100042.03;5090802;27;20194;-62
2023/08/19 01:52:12;;;;;;;6.10;4.83;;;;;;;25.14;78.84;100047.81;5085737;28;20459;-63
2023/08/19 01:54:37;;;;;;;6.50;5.17;;;;;;;25.14;78.91;100047.81;5093468;28;20416;-62
2023/08/19 01:57:03;;;;;;;5.30;4.47;;;;;;;25.14;78.80;100047.81;5109344;28;20497;-62
2023/08/19 01:59:29;;;;;;;5.60;4.13;;;;;;;25.15;79.03;100049.47;5107958;28;20154;-62
2023/08/19 02:01:54;;;;;;;6.90;4.50;;;;;;;25.15;78.73;100046.59;5105245;28;20185;-62
2023/08/19 02:04:19;;;;;;;5.37;4.70;;;;;;;25.15;78.77;100045.75;5118675;27;20957;-62
2023/08/19 02:06:45;;;;;;;4.57;3.60;;;;;;;25.14;78.54;100047.81;5127754;27;20173;-63
2023/08/19 02:09:10;;;;;;;7.70;4.57;;;;;;;25.14;78.59;100047.81;5120377;27;20178;-62
2023/08/19 02:11:36;;;;;;;6.33;4.70;;;;;;;25.14;78.87;100047.81;5086981;28;20973;-63
2023/08/19 02:14:01;;;;;;;4.27;3.70;;;;;;;25.13;78.55;100049.06;5092475;28;20942;-62
2023/08/19 02:16:27;;;;;;;8.97;4.63;;;;;;;25.13;78.79;100049.06;5089946;28;20514;-62
2023/08/19 02:18:52;;;;;;;6.30;4.27;;;;;;;25.13;78.42;100051.94;5087641;28;20560;-63
2023/08/19 02:21:17;;;;;;;7.60;4.70;;;;;;;25.14;78.37;100053.59;5088385;28;20265;-62
2023/08/19 02:23:43;;;;;;;5.00;3.90;;;;;;;25.13;78.79;100051.94;5089358;28;20189;-62
2023/08/19 02:26:08;;;;;;;5.00;3.93;;;;;;;25.14;78.77;100059.38;5106817;28;20181;-63
2023/08/19 02:28:34;;;;;;;7.17;4.80;;;;;;;25.13;78.23;100051.16;5109160;28;20158;-62
2023/08/19 02:31:02;;;;;;;5.87;4.00;;;;;;;25.13;78.22;100051.16;5090418;28;20206;-62
2023/08/19 02:33:28;;;;;;;5.53;4.20;;;;;;;25.14;78.45;100064.34;5106221;28;20196;-62
2023/08/19 02:35:54;;;;;;;7.70;4.77;;;;;;;25.13;78.68;100056.94;5108596;28;20419;-62
2023/08/19 02:38:19;;;;;;;5.50;4.17;;;;;;;25.12;78.24;100061.88;5104027;28;20185;-62
2023/08/19 02:40:52;;;;;;;5.40;4.27;;;;;;;25.12;78.38;100056.09;5090459;28;20201;-63
2023/08/19 02:43:18;;;;;;;5.60;4.50;;;;;;;25.12;78.82;100064.78;5088487;28;20174;-62
2023/08/19 02:45:43;;;;;;;4.37;3.73;;;;;;;25.12;78.08;100064.78;5090391;28;20899;-63
2023/08/19 02:48:09;;;;;;;5.77;4.40;;;;;;;25.12;78.28;100064.78;5088382;28;20193;-62
2023/08/19 02:50:34;;;;;;;5.30;4.03;;;;;;;25.12;78.55;100061.06;5090015;28;20271;-62
2023/08/19 02:53:00;;;;;;;4.40;3.70;;;;;;;25.11;77.93;100063.13;5088699;28;20277;-62
2023/08/19 02:55:25;;;;;;;4.87;3.97;;;;;;;25.12;77.86;100066.81;5098144;28;20183;-62
2023/08/19 02:57:51;;;;;;;5.10;3.80;;;;;;;25.12;78.42;100061.06;5093662;28;20190;-62
2023/08/19 03:00:16;;;;;;;5.63;4.20;;;;;;;25.11;78.27;100060.25;5087552;28;20178;-62
2023/08/19 03:02:45;;;;;;;5.03;3.83;;;;;;;25.10;78.17;100061.50;5068293;28;20187;-62
2023/08/19 03:05:11;;;;;;;5.63;4.27;;;;;;;25.12;78.20;100067.66;5094473;28;20177;-62
2023/08/19 03:07:36;;;;;;;5.20;3.73;;;;;;;25.11;77.77;100065.19;5102317;28;20435;-62
2023/08/19 03:10:02;;;;;;;5.30;3.83;;;;;;;25.12;77.91;100064.78;5104097;28;20177;-62
2023/08/19 03:12:28;;;;;;;4.93;3.97;;;;;;;25.10;77.70;100067.28;5102285;28;20665;-62
2023/08/19 03:14:53;;;;;;;5.60;4.00;;;;;;;25.11;77.86;100066.03;5106798;28;20469;-62
2023/08/19 03:17:19;;;;;;;5.70;3.93;;;;;;;25.11;78.13;100068.91;5086956;28;20178;-62
2023/08/19 03:19:45;;;;;;;6.37;4.17;;;;;;;25.11;77.97;100068.09;5087648;28;20233;-63
2023/08/19 03:22:11;;;;;;;7.90;4.47;;;;;;;25.11;78.26;100068.09;5089379;28;20899;-63
2023/08/19 03:24:36;;;;;;;5.97;3.87;;;;;;;25.11;78.39;100066.03;5087359;28;20174;-63
2023/08/19 03:27:01;;;;;;;6.80;4.00;;;;;;;25.09;77.88;100068.50;5073022;28;20194;-63
2023/08/19 03:29:27;;;;;;;6.57;4.47;;;;;;;25.10;78.01;100067.28;5109247;28;20173;-62
2023/08/19 03:31:53;;;;;;;5.70;4.60;;;;;;;25.09;78.07;100074.28;5128830;28;20201;-62
2023/08/19 03:34:18;;;;;;;4.80;3.80;;;;;;;25.10;78.07;100070.16;5117453;28;20182;-63
2023/08/19 03:36:44;;;;;;;4.87;4.30;;;;;;;25.10;78.17;100064.41;5106732;27;20871;-62
2023/08/19 03:39:09;;;;;;;5.90;3.80;;;;;;;25.08;78.28;100064.00;5091675;28;20248;-62
2023/08/19 03:41:34;;;;;;;5.47;3.70;;;;;;;25.09;78.06;100073.50;5095414;27;20190;-62
2023/08/19 03:44:00;;;;;;;9.70;4.70;;;;;;;25.09;77.84;100074.28;5111412;28;20189;-63
2023/08/19 03:46:25;;;;;;;8.93;5.07;;;;;;;25.09;78.06;100077.19;5089888;28;20184;-63
2023/08/19 03:48:51;;;;;;;4.70;4.00;;;;;;;25.09;77.90;100080.06;5098374;27;20228;-62
2023/08/19 03:51:16;;;;;;;6.13;4.03;;;;;;;25.08;77.69;100078.44;5132020;27;20258;-63
2023/08/19 03:53:42;;;;;;;7.13;5.23;;;;;;;25.09;78.07;100074.28;5124348;27;20200;-63
2023/08/19 03:56:07;;;;;;;8.67;5.70;;;;;;;25.08;77.55;100078.44;5107712;28;20173;-62
2023/08/19 03:58:33;;;;;;;6.03;4.67;;;;;;;25.09;77.39;100074.28;5110418;28;20170;-63
2023/08/19 04:01:05;;;;;;;9.23;4.87;;;;;;;25.08;77.58;100077.63;5110236;28;20185;-62
2023/08/19 04:03:31;;;;;;;5.93;3.80;;;;;;;25.07;77.95;100076.81;5109936;27;20311;-62
2023/08/19 04:05:56;;;;;;;5.77;4.20;;;;;;;25.08;77.50;100080.53;5092745;28;20440;-62
2023/08/19 04:08:22;;;;;;;5.40;4.60;;;;;;;25.07;77.62;100079.69;5089965;28;20179;-62
2023/08/19 04:10:47;;;;;;;4.90;3.77;;;;;;;25.07;77.84;100088.34;5090554;28;20213;-62
2023/08/19 04:13:12;;;;;;;6.13;4.00;;;;;;;25.07;77.67;100085.47;5106261;28;20240;-62
2023/08/19 04:15:38;;;;;;;5.40;4.27;;;;;;;25.08;77.69;100090.00;5100632;28;20181;-62
2023/08/19 04:18:04;;;;;;;5.27;3.83;;;;;;;25.07;77.47;100085.47;5128889;27;20232;-62
2023/08/19 04:20:29;;;;;;;6.30;3.93;;;;;;;25.06;77.69;100089.63;5101569;27;20186;-62
2023/08/19 04:22:55;;;;;;;5.37;4.03;;;;;;;25.07;77.90;100093.31;5090463;28;20232;-62
2023/08/19 04:25:20;;;;;;;4.40;3.53;;;;;;;25.06;77.62;100092.50;5092592;28;20249;-62
2023/08/19 04:27:46;;;;;;;6.30;4.00;;;;;;;25.06;77.37;100098.28;5089998;28;20163;-62
2023/08/19 04:30:12;;;;;;;4.43;3.70;;;;;;;25.06;77.86;100097.44;5069878;28;20183;-63
2023/08/19 04:32:38;;;;;;;4.63;3.70;;;;;;;25.06;77.31;100100.34;5072625;28;20665;-62
2023/08/19 04:35:04;;;;;;;4.40;3.97;;;;;;;25.06;77.48;100109.84;5107322;27;20474;-63
2023/08/19 04:37:29;;;;;;;5.83;4.00;;;;;;;25.06;77.54;100103.22;5089580;28;20190;-62
2023/08/19 04:39:55;;;;;;;5.43;3.90;;;;;;;25.06;77.62;100106.13;5091773;28;20428;-62
2023/08/19 04:42:20;;;;;;;5.70;4.03;;;;;;;25.05;77.24;100107.38;5091808;28;20182;-62
2023/08/19 04:44:45;;;;;;;5.47;3.67;;;;;;;25.05;77.39;100108.19;5089164;28;20178;-62
2023/08/19 04:47:11;;;;;;;5.90;4.00;;;;;;;25.05;77.39;100110.25;5070683;28;20880;-62
2023/08/19 04:49:36;;;;;;;4.90;4.10;;;;;;;25.06;77.39;100117.66;5099070;28;20625;-63
2023/08/19 04:52:04;;;;;;;4.27;3.37;;;;;;;25.05;77.59;100119.75;5091332;28;20675;-62
2023/08/19 04:54:29;;;;;;;4.50;3.93;;;;;;;25.04;77.02;100118.09;5107382;28;20196;-62
2023/08/19 04:56:55;;;;;;;5.53;4.00;;;;;;;25.04;77.10;100123.88;5109416;28;20416;-63
2023/08/19 04:59:20;;;;;;;7.40;4.23;;;;;;;25.04;77.01;100132.53;5109238;28;20186;-62
2023/08/19 05:01:46;;;;;;;5.43;3.50;;;;;;;25.05;76.92;100133.38;5097473;28;20186;-63
2023/08/19 05:04:11;;;;;;;5.80;4.20;;;;;;;25.05;77.53;100137.09;5095919;27;20192;-62
2023/08/19 05:06:37;;;;;;;3.73;3.00;;;;;;;25.04;77.22;100135.44;5123675;27;20210;-63
2023/08/19 05:09:03;;;;;;;4.90;3.60;;;;;;;25.02;77.33;100137.94;5089933;28;20197;-62
2023/08/19 05:11:28;;;;;;;4.60;4.00;;;;;;;25.04;77.01;100134.63;5089797;28;20218;-62
2023/08/19 05:13:54;;;;;;;5.23;3.67;;;;;;;25.03;77.53;100138.78;5098766;28;20181;-62
2023/08/19 05:16:19;;;;;;;4.67;4.00;;;;;;;25.03;76.96;100125.13;5107219;27;20178;-63
2023/08/19 05:18:44;;;;;;;5.60;3.90;;;;;;;25.04;77.05;100131.75;5112006;27;20236;-62
2023/08/19 05:21:10;;;;;;;4.57;3.83;;;;;;;25.03;76.92;100133.78;5093418;28;20186;-63
2023/08/19 05:23:35;;;;;;;4.93;4.17;;;;;;;25.03;77.25;100135.88;5089653;28;20178;-62
2023/08/19 05:26:01;;;;;;;5.30;4.10;;;;;;;25.03;77.12;100133.78;5089687;28;20175;-62
2023/08/19 05:28:26;;;;;;;6.70;4.20;;;;;;;25.03;77.32;100133.78;5098269;27;20165;-62
2023/08/19 05:30:52;;;;;;;4.63;4.07;;;;;;;25.03;77.02;100139.56;5107280;27;20766;-62
2023/08/19 05:33:17;;;;;;;5.93;4.47;;;;;;;25.03;77.05;100133.78;5115003;27;20177;-62
2023/08/19 05:35:43;;;;;;;6.20;4.27;;;;;;;25.03;77.03;100136.69;5089960;28;20182;-62
2023/08/19 05:38:08;;;;;;;4.10;3.53;;;;;;;25.03;77.11;100139.56;5109697;28;20177;-62
2023/08/19 05:40:34;;;;;;;6.40;3.50;;;;;;;25.03;77.02;100141.66;5107337;28;20190;-62
2023/08/19 05:42:59;;;;;;;6.47;4.53;;;;;;;25.04;76.86;100134.63;5093655;28;20240;-63
2023/08/19 05:45:25;;;;;;;5.17;3.87;;;;;;;25.03;77.25;100142.47;5109170;28;20589;-62
2023/08/19 05:47:50;;;;;;;5.30;4.23;;;;;;;25.04;76.79;100140.41;5105954;27;20717;-62
2023/08/19 05:50:16;;;;;;;5.13;4.07;;;;;;;25.03;76.76;100141.66;5108185;28;20208;-62
2023/08/19 05:52:42;;;;;;;6.27;4.40;;;;;;;25.03;76.64;100153.22;5108397;28;20169;-62
2023/08/19 05:55:07;;;;;;;6.10;4.43;;;;;;;25.04;76.64;100151.97;5105971;28;20421;-63
2023/08/19 05:57:33;;;;;;;5.40;4.03;;;;;;;25.03;76.90;100159.00;5099204;28;20185;-62
2023/08/19 05:59:59;;;;;;;5.40;4.20;;;;;;;25.03;76.97;100167.66;5087920;28;20622;-62
2023/08/19 06:02:24;;;;;;;5.70;3.80;;;;;;;25.02;77.17;100172.59;5094563;28;20418;-62
2023/08/19 06:04:50;;;;;;;5.23;4.73;;;;;;;25.03;77.15;100173.44;5100558;27;20190;-63
2023/08/19 06:07:19;;;;;;;5.10;3.97;;;;;;;25.03;76.90;100167.66;5088667;28;20178;-63
2023/08/19 06:09:45;;;;;;;4.87;4.00;;;;;;;25.03;76.75;100173.44;5091065;28;20184;-62
2023/08/19 06:12:10;;;;;;;5.70;4.40;;;;;;;25.02;77.25;100166.81;5100688;28;20466;-63
2023/08/19 06:14:36;;;;;;;5.17;3.97;;;;;;;25.02;77.00;100166.81;5129825;27;20157;-62
2023/08/19 06:17:01;;;;;;;5.33;4.77;;;;;;;25.02;76.80;100163.94;5097541;27;20190;-62
2023/08/19 06:19:27;;;;;;;6.60;4.80;;;;;;;25.02;77.27;100166.81;5102622;28;20987;-62
2023/08/19 06:21:53;;;;;;;5.27;4.67;;;;;;;25.03;76.87;100161.88;5107450;28;20645;-63
2023/08/19 06:24:19;;;;;;;4.60;4.00;;;;;;;25.02;76.72;100163.94;5090590;28;20582;-62
2023/08/19 06:26:44;;;;;;;5.37;4.17;;;;;;;25.03;76.85;100174.25;5088858;28;20466;-62
2023/08/19 06:29:10;;;;;;;6.47;4.63;;;;;;;25.03;77.23;100173.44;5091058;28;20553;-62
2023/08/19 06:31:35;;;;;;;5.10;4.13;;;;;;;25.03;76.88;100173.44;5091222;28;20570;-63
2023/08/19 06:34:01;;;;;;;7.07;4.17;;;;;;;25.02;77.34;100181.28;5092515;27;20173;-63
2023/08/19 06:36:30;;;;;;;5.30;4.53;;;;;;;25.02;77.26;100178.38;5109128;27;20545;-64
2023/08/19 06:39:22;;;;;;;6.43;4.43;;;;;;;25.02;77.19;100178.38;5090098;28;20677;-63
2023/08/19 06:41:48;;;;;;;6.17;4.50;;;;;;;25.02;77.25;100180.44;5079491;28;20427;-63
2023/08/19 06:44:14;;;;;;;5.43;4.70;;;;;;;25.03;76.93;100180.03;5071152;28;20440;-63
2023/08/19 06:46:42;;;;;;;6.07;4.20;;;;;;;25.02;76.77;100195.72;5069213;28;20420;-63
2023/08/19 06:49:08;;;;;;;5.10;4.10;;;;;;;25.03;77.18;100206.03;5068799;28;20213;-62
2023/08/19 06:51:34;;;;;;;9.43;5.00;;;;;;;25.02;76.79;100207.28;5104612;28;20579;-63
2023/08/19 06:53:59;;;;;;;5.17;4.10;;;;;;;25.03;77.16;100214.69;5102657;28;20679;-63
2023/08/19 06:56:37;;;;;;;5.83;4.60;;;;;;;25.03;76.81;100216.78;5098810;28;20230;-62
2023/08/19 06:59:12;;;;;;;7.23;5.73;;;;;;;25.02;77.28;100224.59;5088299;28;20816;-63
2023/08/19 07:01:38;;;;;;;7.80;4.73;;;;;;;25.02;77.15;100220.88;5070086;28;20883;-63
2023/08/19 07:04:04;;;;;;;5.17;4.67;;;;;;;25.01;76.89;100211.41;5111236;28;20415;-64
2023/08/19 07:06:31;;;;;;;5.33;4.50;;;;;;;25.02;76.85;100213.06;5095078;28;20182;-64
2023/08/19 07:08:57;;;;;;;6.13;4.70;;;;;;;25.02;76.57;100224.59;5089667;28;20255;-63
2023/08/19 07:11:22;;;;;;;5.90;5.30;;;;;;;25.03;76.43;100219.66;5075439;28;20464;-63
2023/08/19 07:13:48;;;;;;;6.57;4.80;;;;;;;25.02;76.75;100213.06;5106176;28;20430;-62
2023/08/19 07:16:15;;;;;;;6.30;5.13;;;;;;;25.01;76.58;100225.88;5106805;27;20184;-64
2023/08/19 07:18:41;;;;;;;6.03;4.67;;;;;;;25.01;76.29;100225.88;5090921;28;20253;-63
2023/08/19 07:21:16;;;;;;;19.07;6.90;;;;;;;25.06;77.04;100224.56;5090437;28;20502;-63
2023/08/19 07:23:45;;;;;;;18.73;5.93;;;;;;;25.07;76.66;100221.25;5108526;28;20426;-65
2023/08/19 07:26:11;;;;;;;16.00;6.30;;;;;;;25.11;78.38;100222.06;5094210;28;20416;-64
2023/08/19 07:28:36;;;;;;;14.93;6.90;;;;;;;25.29;78.81;100221.91;5102017;28;20475;-65
2023/08/19 07:31:03;;;;;;;11.47;8.70;;;;;;;25.45;78.23;100225.84;5091652;28;20189;-65
2023/08/19 07:33:29;;;;;;;25.17;10.73;;;;;;;25.57;79.00;100222.41;5105223;27;20177;-65
2023/08/19 07:35:54;;;;;;;11.30;9.50;;;;;;;25.70;85.63;100223.47;5131809;27;20422;-65
2023/08/19 07:38:20;;;;;;;14.87;9.07;;;;;;;25.69;82.86;100224.72;5121350;27;20177;-62
2023/08/19 07:40:46;;;;;;;11.70;9.00;;;;;;;25.65;83.38;100220.25;5092722;28;20154;-65
2023/08/19 07:43:11;;;;;;;14.60;8.17;;;;;;;25.58;84.62;100223.22;5110119;27;20641;-65
2023/08/19 07:45:37;;;;;;;13.73;8.13;;;;;;;25.55;84.36;100224.09;5096300;28;20178;-65
2023/08/19 07:48:02;;;;;;;14.60;7.67;;;;;;;25.48;83.20;100222.09;5097126;28;20657;-65
2023/08/19 07:50:28;;;;;;;10.90;6.77;;;;;;;25.46;82.12;100227.50;5066487;28;20199;-65
2023/08/19 07:52:54;;;;;;;9.10;5.80;;;;;;;25.48;81.00;100224.19;5074980;28;20213;-65
2023/08/19 07:55:19;;;;;;;9.17;6.20;;;;;;;25.46;79.79;100233.28;5094016;28;20186;-64
2023/08/19 07:57:44;;;;;;;12.23;6.47;;;;;;;25.47;80.17;100234.91;5091206;28;20174;-64
2023/08/19 08:00:10;;;;;;;8.77;6.07;;;;;;;25.47;79.15;100226.22;5090210;28;20178;-65
2023/08/19 08:02:36;;;;;;;12.90;6.67;;;;;;;25.49;78.78;100231.59;5093034;28;20994;-64
2023/08/19 08:05:02;;;;;;;10.27;6.23;;;;;;;25.49;78.80;100231.59;5129640;27;20613;-64
2023/08/19 08:07:28;;;;;;;21.57;8.73;;;;;;;25.53;79.27;100232.38;5131251;27;20168;-64
2023/08/19 08:09:53;;;;;;;21.10;7.87;;;;;;;25.58;79.01;100232.72;5123418;27;20443;-64
2023/08/19 08:12:19;;;;;;;21.63;7.47;;;;;;;25.56;78.90;100234.38;5088332;28;20185;-65
2023/08/19 08:14:44;;;;;;;17.07;6.80;;;;;;;25.65;77.87;100235.50;5100253;27;20182;-65
2023/08/19 08:17:10;;;;;;;16.20;6.43;;;;;;;25.66;79.03;100237.16;5090998;28;20210;-65
2023/08/19 08:19:36;;;;;;;15.83;6.80;;;;;;;25.68;78.44;100240.44;5092425;28;20226;-65
2023/08/19 08:22:01;;;;;;;12.83;6.57;;;;;;;25.69;78.14;100247.84;5104633;28;20231;-65
2023/08/19 08:24:28;;;;;;;17.40;7.03;;;;;;;25.73;78.94;100242.84;5108586;28;20202;-62
2023/08/19 08:26:53;;;;;;;13.53;7.10;;;;;;;25.79;86.26;100241.13;5109088;28;20431;-64
2023/08/19 08:29:19;;;;;;;10.40;6.40;;;;;;;25.83;82.30;100246.84;5090984;28;20185;-65
2023/08/19 08:31:44;;;;;;;11.23;6.10;;;;;;;25.86;80.83;100234.44;5097833;28;20210;-65
2023/08/19 08:34:10;;;;;;;16.23;7.00;;;;;;;25.82;80.91;100242.34;5113584;27;20180;-65
2023/08/19 08:36:35;;;;;;;16.60;7.00;;;;;;;25.82;80.92;100246.06;5122424;27;20177;-64
2023/08/19 08:39:01;;;;;;;15.33;6.70;;;;;;;25.84;81.07;100249.31;5090078;28;20177;-64
2023/08/19 08:41:26;;;;;;;27.10;11.23;;;;;;;25.92;87.70;100242.25;5108551;28;20270;-65
2023/08/19 08:43:52;;;;;;;25.87;15.57;;;;;;;26.01;91.99;100242.53;5060664;28;20190;-65
2023/08/19 08:46:17;;;;;;;20.63;11.63;;;;;;;25.97;93.27;100238.88;5088795;28;20163;-65
2023/08/19 08:48:43;;;;;;;20.57;8.90;;;;;;;25.91;87.10;100233.97;5072271;28;20206;-65
2023/08/19 08:51:09;;;;;;;25.13;8.83;;;;;;;25.95;85.44;100241.34;5108519;28;20197;-63
2023/08/19 08:53:34;;;;;;;13.40;7.60;;;;;;;25.92;84.23;100242.25;5086454;28;20182;-64
2023/08/19 08:56:00;;;;;;;12.53;7.20;;;;;;;25.88;82.67;100246.38;5073474;28;20184;-65
2023/08/19 08:58:25;;;;;;;12.10;6.63;;;;;;;25.91;80.81;100242.63;5102587;28;20540;-65
2023/08/19 09:00:51;;;;;;;12.80;6.23;;;;;;;25.90;80.31;100256.28;5070603;28;20179;-65
2023/08/19 09:03:25;;;;;;;13.70;6.23;;;;;;;25.92;79.20;100250.09;5076213;28;20185;-64
2023/08/19 09:05:52;;;;;;;12.63;6.10;;;;;;;25.89;79.27;100262.50;5108405;28;20210;-65
2023/08/19 09:08:18;;;;;;;17.13;6.43;;;;;;;25.87;78.98;100256.31;5110125;28;20519;-66
2023/08/19 09:10:44;;;;;;;14.13;6.60;;;;;;;25.87;78.64;100260.03;5087850;28;20439;-64
2023/08/19 09:13:10;;;;;;;17.47;6.60;;;;;;;25.84;78.33;100260.91;5110105;28;20447;-65
2023/08/19 09:15:35;;;;;;;21.43;6.13;;;;;;;25.86;77.83;100260.47;5117042;27;20468;-66
2023/08/19 09:18:01;;;;;;;17.20;6.80;;;;;;;25.88;77.89;100250.09;5126167;27;20216;-65
2023/08/19 09:20:26;;;;;;;24.33;6.20;;;;;;;25.89;77.57;100251.75;5089482;28;20182;-65
2023/08/19 09:22:51;;;;;;;9.93;5.73;;;;;;;25.89;76.87;100251.75;5109291;28;20508;-65
2023/08/19 09:25:17;;;;;;;14.20;7.07;;;;;;;25.89;76.92;100245.16;5101340;28;20279;-65
2023/08/19 09:27:44;;;;;;;15.00;6.30;;;;;;;25.87;77.15;100256.31;5088438;28;20174;-65
2023/08/19 09:30:14;;;;;;;10.80;6.07;;;;;;;25.83;76.65;100250.59;5087682;27;20169;-65
2023/08/19 09:32:41;;;;;;;10.30;6.57;;;;;;;25.85;76.63;100244.38;5081112;28;20460;-64
2023/08/19 09:35:12;;;;;;;12.00;6.43;;;;;;;25.86;76.53;100252.63;5089397;28;20483;-65
2023/08/19 09:37:37;;;;;;;10.80;6.13;;;;;;;25.83;75.78;100255.53;5061050;28;20455;-65
2023/08/19 09:40:17;;;;;;;17.23;6.40;;;;;;;25.86;75.32;100258.41;5113029;27;20415;-65
2023/08/19 09:42:46;;;;;;;20.33;6.47;;;;;;;25.89;75.39;100257.53;5102408;28;20173;-65
2023/08/19 09:45:16;;;;;;;15.63;6.00;;;;;;;25.90;75.12;100264.16;5089264;28;20416;-64
2023/08/19 09:47:49;;;;;;;12.50;6.00;;;;;;;25.89;74.99;100268.31;5107062;28;20415;-66
2023/08/19 09:50:15;;;;;;;12.70;6.97;;;;;;;25.92;75.24;100274.06;5108371;28;20443;-65
2023/08/19 09:52:41;;;;;;;14.80;6.63;;;;;;;25.94;75.02;100270.75;5091331;28;20825;-65
2023/08/19 09:55:07;;;;;;;13.20;5.80;;;;;;;25.95;75.11;100278.97;5098744;28;20412;-66
2023/08/19 09:57:35;;;;;;;9.80;6.27;;;;;;;25.91;74.53;100281.13;5088491;28;20193;-64
2023/08/19 10:00:01;;;;;;;9.83;6.30;;;;;;;25.90;74.81;100276.53;5089022;28;20587;-64
2023/08/19 10:02:28;;;;;;;14.07;6.87;;;;;;;25.89;75.51;100280.69;5088851;28;21115;-65
2023/08/19 10:04:53;;;;;;;11.17;5.90;;;;;;;25.90;74.90;100278.63;5110801;27;20439;-64
2023/08/19 10:07:22;;;;;;;11.03;5.83;;;;;;;25.89;74.81;100282.78;5103306;28;20427;-63
2023/08/19 10:09:47;;;;;;;11.23;5.97;;;;;;;25.85;75.90;100285.69;5086352;28;20185;-64
2023/08/19 10:12:15;;;;;;;14.97;6.40;;;;;;;25.89;75.32;100291.44;5069946;28;20460;-64
2023/08/19 10:14:40;;;;;;;11.60;6.27;;;;;;;25.85;75.36;100294.34;5072780;28;20304;-64
2023/08/19 10:17:06;;;;;;;12.63;6.17;;;;;;;25.85;75.16;100294.34;5053370;28;20424;-64
2023/08/19 10:19:51;;;;;;;11.83;6.60;;;;;;;25.83;76.02;100293.16;5088271;28;20275;-63
2023/08/19 10:22:17;;;;;;;8.63;5.60;;;;;;;25.82;75.84;100297.28;5062513;28;20263;-64
2023/08/19 10:24:43;;;;;;;10.40;6.40;;;;;;;25.84;75.64;100300.59;5091213;28;20424;-64
2023/08/19 10:27:18;;;;;;;9.83;5.50;;;;;;;25.84;76.04;100294.81;5086526;28;20224;-64
2023/08/19 10:29:46;;;;;;;13.03;5.63;;;;;;;25.83;75.57;100299.75;5096551;28;20454;-64
2023/08/19 10:32:28;;;;;;;8.70;6.03;;;;;;;25.81;75.95;100290.72;5106963;28;20954;-63
2023/08/19 10:35:08;;;;;;;11.87;5.30;;;;;;;25.82;76.23;100298.13;5097217;28;20523;-64
2023/08/19 10:37:33;;;;;;;7.27;5.83;;;;;;;25.81;76.45;100296.50;5106241;28;20399;-64
2023/08/19 10:40:25;;;;;;;8.90;5.80;;;;;;;25.84;75.77;100300.59;5106866;28;20477;-64
2023/08/19 10:42:57;;;;;;;7.47;6.10;;;;;;;25.83;76.37;100305.56;5084171;28;20201;-64
2023/08/19 10:45:23;;;;;;;14.33;6.10;;;;;;;25.82;76.04;100298.13;5057907;28;20439;-64
2023/08/19 10:47:50;;;;;;;10.20;6.33;;;;;;;25.80;76.72;100300.63;5088446;28;20424;-64
2023/08/19 10:50:16;;;;;;;8.20;5.83;;;;;;;25.81;76.04;100313.00;5087920;28;20201;-64
2023/08/19 10:52:58;;;;;;;10.27;6.20;;;;;;;25.80;76.51;100305.59;5097186;28;20566;-64
2023/08/19 10:55:23;;;;;;;8.20;5.00;;;;;;;25.79;76.13;100316.34;5107396;28;20185;-64
2023/08/19 10:57:48;;;;;;;12.87;5.77;;;;;;;25.80;76.83;100315.06;5104445;28;20439;-64
2023/08/19 11:00:14;;;;;;;10.07;6.20;;;;;;;25.81;76.18;100316.75;5108391;28;20173;-64
2023/08/19 11:02:40;;;;;;;9.03;5.40;;;;;;;25.80;76.80;100314.28;5108539;28;20158;-64
2023/08/19 11:05:06;;;;;;;9.80;5.70;;;;;;;25.79;76.18;100312.63;5110608;28;20543;-63
2023/08/19 11:07:33;;;;;;;15.20;6.97;;;;;;;25.80;76.63;100312.19;5106572;28;20640;-64
2023/08/19 11:09:58;;;;;;;8.93;5.30;;;;;;;25.80;76.55;100311.38;5090052;28;20424;-64
2023/08/19 11:12:26;;;;;;;9.17;5.40;;;;;;;25.81;76.32;100313.84;5072093;28;20523;-63
2023/08/19 11:14:55;;;;;;;6.63;5.10;;;;;;;25.82;76.44;100314.66;5070532;28;20221;-65
2023/08/19 11:17:27;;;;;;;6.73;5.50;;;;;;;25.82;76.47;100303.09;5090055;28;20408;-65
2023/08/19 11:19:52;;;;;;;12.77;6.00;;;;;;;25.81;76.11;100313.84;5116378;28;20514;-64